sensor_id;sensor_type;location;lat;lon;timestamp;pressure;altitude;pressure_sealevel;temperature;humidity
49583;BME280;36329;48.816;44.624;2022-09-09T00:02:47;101282;;;12.9;45.4
49583;BME280;36329;48.816;44.624;2022-09-09T00:05:58;101281;;;12.9;45.2
49583;BME280;36329;48.816;44.624;2022-09-09T00:09:05;101282;;;13;45.1
49583;BME280;36329;48.816;44.624;2022-09-09T00:12:11;101279;;;12.9;45.2
49583;BME280;36329;48.816;44.624;2022-09-09T00:15:18;101278;;;12.9;45.4
49583;BME280;36329;48.816;44.624;2022-09-09T00:18:24;101283;;;12.9;45.3
49583;BME280;36329;48.816;44.624;2022-09-09T00:21:34;101281;;;12.9;45.7
49583;BME280;36329;48.816;44.624;2022-09-09T00:24:41;101276;;;12.8;46
49583;BME280;36329;48.816;44.624;2022-09-09T00:27:47;101272;;;12.7;46.4
49583;BME280;36329;48.816;44.624;2022-09-09T00:30:49;101271;;;12.7;46.8
49583;BME280;36329;48.816;44.624;2022-09-09T00:33:52;101268;;;12.8;47
49583;BME280;36329;48.816;44.624;2022-09-09T00:36:55;101264;;;12.8;46.9
49583;BME280;36329;48.816;44.624;2022-09-09T00:39:59;101258;;;12.7;46.6
49583;BME280;36329;48.816;44.624;2022-09-09T00:43:12;101252;;;12.6;47.2
49583;BME280;36329;48.816;44.624;2022-09-09T00:50:00;101251;;;12.8;47.2
49583;BME280;36329;48.816;44.624;2022-09-09T00:53:14;101249;;;12.7;46.7
49583;BME280;36329;48.816;44.624;2022-09-09T00:56:20;101256;;;12.8;46.9
49583;BME280;36329;48.816;44.624;2022-09-09T00:59:29;101257;;;12.9;46.6
49583;BME280;36329;48.816;44.624;2022-09-09T01:02:39;101257;;;12.9;45.9
49583;BME280;36329;48.816;44.624;2022-09-09T01:05:48;101258;;;12.9;47
49583;BME280;36329;48.816;44.624;2022-09-09T01:09:03;101262;;;12.6;47.7
49583;BME280;36329;48.816;44.624;2022-09-09T01:12:14;101265;;;12.5;48.1
49583;BME280;36329;48.816;44.624;2022-09-09T01:15:20;101265;;;12.4;48.5
49583;BME280;36329;48.816;44.624;2022-09-09T01:18:27;101268;;;12.2;48.9
49583;BME280;36329;48.816;44.624;2022-09-09T01:21:40;101261;;;12;49.3
49583;BME280;36329;48.816;44.624;2022-09-09T01:25:09;101259;;;11.9;49.5
49583;BME280;36329;48.816;44.624;2022-09-09T01:28:16;101255;;;12;48.8
49583;BME280;36329;48.816;44.624;2022-09-09T01:31:26;101252;;;12;48.2
49583;BME280;36329;48.816;44.624;2022-09-09T01:34:33;101253;;;12;48.7
49583;BME280;36329;48.816;44.624;2022-09-09T01:37:36;101253;;;12.1;48.2
49583;BME280;36329;48.816;44.624;2022-09-09T01:40:38;101250;;;12.1;47.6
49583;BME280;36329;48.816;44.624;2022-09-09T01:43:40;101245;;;12.2;47.7
49583;BME280;36329;48.816;44.624;2022-09-09T01:46:41;101242;;;12.3;47.6
49583;BME280;36329;48.816;44.624;2022-09-09T01:49:43;101238;;;12.4;47.1
49583;BME280;36329;48.816;44.624;2022-09-09T01:52:47;101239;;;12.5;46.8
49583;BME280;36329;48.816;44.624;2022-09-09T01:55:56;101239;;;12.6;46.3
49583;BME280;36329;48.816;44.624;2022-09-09T01:59:06;101243;;;12.6;46.4
49583;BME280;36329;48.816;44.624;2022-09-09T02:02:13;101251;;;12.7;46.5
49583;BME280;36329;48.816;44.624;2022-09-09T02:05:25;101264;;;12.6;46.1
49583;BME280;36329;48.816;44.624;2022-09-09T02:08:36;101256;;;12.6;46.1
49583;BME280;36329;48.816;44.624;2022-09-09T02:11:43;101263;;;12.6;45.7
49583;BME280;36329;48.816;44.624;2022-09-09T02:14:54;101269;;;12.6;45.6
49583;BME280;36329;48.816;44.624;2022-09-09T02:17:58;101266;;;12.6;45.7
49583;BME280;36329;48.816;44.624;2022-09-09T02:21:03;101283;;;12.6;46.2
49583;BME280;36329;48.816;44.624;2022-09-09T02:24:07;101278;;;12.6;46.7
49583;BME280;36329;48.816;44.624;2022-09-09T02:27:09;101281;;;12.6;46.7
49583;BME280;36329;48.816;44.624;2022-09-09T02:30:12;101278;;;12.5;47.2
49583;BME280;36329;48.816;44.624;2022-09-09T02:33:14;101277;;;12.4;47.6
49583;BME280;36329;48.816;44.624;2022-09-09T02:36:16;101277;;;12.3;46.7
49583;BME280;36329;48.816;44.624;2022-09-09T02:39:19;101270;;;12.2;46.7
49583;BME280;36329;48.816;44.624;2022-09-09T02:42:21;101273;;;11.9;47.6
49583;BME280;36329;48.816;44.624;2022-09-09T02:45:25;101278;;;11.5;49.2
49583;BME280;36329;48.816;44.624;2022-09-09T02:48:31;101273;;;11.1;50.2
49583;BME280;36329;48.816;44.624;2022-09-09T02:51:44;101279;;;11.3;50.1
49583;BME280;36329;48.816;44.624;2022-09-09T02:54:54;101270;;;11.4;50.1
49583;BME280;36329;48.816;44.624;2022-09-09T02:58:01;101271;;;11.2;50.5
49583;BME280;36329;48.816;44.624;2022-09-09T03:01:04;101275;;;11;51
49583;BME280;36329;48.816;44.624;2022-09-09T03:04:06;101272;;;11.1;50.8
49583;BME280;36329;48.816;44.624;2022-09-09T03:07:08;101278;;;11.2;50.4
49583;BME280;36329;48.816;44.624;2022-09-09T03:10:09;101274;;;11.1;50.8
49583;BME280;36329;48.816;44.624;2022-09-09T03:13:12;101278;;;11;51.1
49583;BME280;36329;48.816;44.624;2022-09-09T03:16:13;101276;;;11.1;51.1
49583;BME280;36329;48.816;44.624;2022-09-09T03:19:15;101282;;;11.2;51.4
49583;BME280;36329;48.816;44.624;2022-09-09T03:22:16;101285;;;11.2;51.2
49583;BME280;36329;48.816;44.624;2022-09-09T03:25:18;101288;;;11.3;51.4
49583;BME280;36329;48.816;44.624;2022-09-09T03:28:20;101285;;;11.4;51.7
49583;BME280;36329;48.816;44.624;2022-09-09T03:31:21;101289;;;11.6;51.1
49583;BME280;36329;48.816;44.624;2022-09-09T03:34:23;101292;;;11.9;50.6
49583;BME280;36329;48.816;44.624;2022-09-09T03:37:24;101293;;;11.9;50.8
49583;BME280;36329;48.816;44.624;2022-09-09T03:40:26;101295;;;12.1;50.9
49583;BME280;36329;48.816;44.624;2022-09-09T03:43:28;101269;;;12.4;50.3
49583;BME280;36329;48.816;44.624;2022-09-09T03:46:30;101289;;;12.5;50.2
49583;BME280;36329;48.816;44.624;2022-09-09T03:49:31;101287;;;12.5;50.2
49583;BME280;36329;48.816;44.624;2022-09-09T03:52:34;101287;;;12.9;49.9
49583;BME280;36329;48.816;44.624;2022-09-09T03:55:35;101289;;;13;49.3
49583;BME280;36329;48.816;44.624;2022-09-09T03:58:38;101292;;;13;49.5
49583;BME280;36329;48.816;44.624;2022-09-09T04:01:40;101295;;;12.9;49.6
49583;BME280;36329;48.816;44.624;2022-09-09T04:04:41;101309;;;13.2;49.5
49583;BME280;36329;48.816;44.624;2022-09-09T04:07:43;101309;;;13.4;49
49583;BME280;36329;48.816;44.624;2022-09-09T04:10:45;101313;;;13.6;48.5
49583;BME280;36329;48.816;44.624;2022-09-09T04:13:47;101317;;;13.8;47.4
49583;BME280;36329;48.816;44.624;2022-09-09T04:16:48;101319;;;14;45.5
49583;BME280;36329;48.816;44.624;2022-09-09T04:19:50;101317;;;14.1;45
49583;BME280;36329;48.816;44.624;2022-09-09T04:22:51;101319;;;14.2;44.1
49583;BME280;36329;48.816;44.624;2022-09-09T04:25:54;101320;;;14.2;43.7
49583;BME280;36329;48.816;44.624;2022-09-09T04:28:56;101320;;;14.3;42.5
49583;BME280;36329;48.816;44.624;2022-09-09T04:31:57;101313;;;14.3;41.9
49583;BME280;36329;48.816;44.624;2022-09-09T04:34:59;101311;;;14.1;42.9
49583;BME280;36329;48.816;44.624;2022-09-09T04:38:00;101315;;;14.1;43.6
49583;BME280;36329;48.816;44.624;2022-09-09T04:41:02;101318;;;14;44.5
49583;BME280;36329;48.816;44.624;2022-09-09T04:44:04;101316;;;14.2;43.2
49583;BME280;36329;48.816;44.624;2022-09-09T04:47:05;101318;;;14.8;42.3
49583;BME280;36329;48.816;44.624;2022-09-09T04:50:08;101328;;;15.3;41.7
49583;BME280;36329;48.816;44.624;2022-09-09T04:53:10;101333;;;15.3;41.4
49583;BME280;36329;48.816;44.624;2022-09-09T04:56:13;101332;;;15.4;41.6
49583;BME280;36329;48.816;44.624;2022-09-09T04:59:16;101332;;;16;40.6
49583;BME280;36329;48.816;44.624;2022-09-09T05:02:17;101339;;;16.2;40.5
49583;BME280;36329;48.816;44.624;2022-09-09T05:05:19;101339;;;16.2;42
49583;BME280;36329;48.816;44.624;2022-09-09T05:08:20;101347;;;16.1;40.8
49583;BME280;36329;48.816;44.624;2022-09-09T05:11:26;101353;;;16;41.1
49583;BME280;36329;48.816;44.624;2022-09-09T05:14:28;101358;;;15.9;41.6
49583;BME280;36329;48.816;44.624;2022-09-09T05:17:29;101360;;;15.7;42.8
49583;BME280;36329;48.816;44.624;2022-09-09T05:20:31;101361;;;15.7;43.4
49583;BME280;36329;48.816;44.624;2022-09-09T05:23:33;101357;;;15.4;44.7
49583;BME280;36329;48.816;44.624;2022-09-09T05:26:35;101359;;;15.4;45.4
49583;BME280;36329;48.816;44.624;2022-09-09T05:29:36;101363;;;15.6;45.3
49583;BME280;36329;48.816;44.624;2022-09-09T05:32:38;101360;;;15.4;44.7
49583;BME280;36329;48.816;44.624;2022-09-09T05:35:39;101361;;;15.7;44.6
49583;BME280;36329;48.816;44.624;2022-09-09T05:38:41;101365;;;15.8;44.6
49583;BME280;36329;48.816;44.624;2022-09-09T05:41:43;101371;;;15.9;44.8
49583;BME280;36329;48.816;44.624;2022-09-09T05:44:44;101375;;;16.1;44.5
49583;BME280;36329;48.816;44.624;2022-09-09T05:47:51;101378;;;16.2;44.9
49583;BME280;36329;48.816;44.624;2022-09-09T05:50:53;101372;;;16.3;45
49583;BME280;36329;48.816;44.624;2022-09-09T05:53:55;101378;;;16.3;44.8
49583;BME280;36329;48.816;44.624;2022-09-09T05:56:57;101377;;;16.4;45.2
49583;BME280;36329;48.816;44.624;2022-09-09T05:59:58;101380;;;16.7;44.4
49583;BME280;36329;48.816;44.624;2022-09-09T06:03:00;101383;;;16.4;44.6
49583;BME280;36329;48.816;44.624;2022-09-09T06:06:04;101385;;;16.2;44.5
49583;BME280;36329;48.816;44.624;2022-09-09T06:09:07;101391;;;15.9;45.4
49583;BME280;36329;48.816;44.624;2022-09-09T06:12:09;101396;;;15.7;45.9
49583;BME280;36329;48.816;44.624;2022-09-09T06:15:10;101387;;;15.6;46.7
49583;BME280;36329;48.816;44.624;2022-09-09T06:18:12;101395;;;15.6;46.8
49583;BME280;36329;48.816;44.624;2022-09-09T06:21:16;101403;;;15.6;46.7
49583;BME280;36329;48.816;44.624;2022-09-09T06:24:18;101406;;;15.6;47
49583;BME280;36329;48.816;44.624;2022-09-09T06:27:20;101413;;;15.7;47.1
49583;BME280;36329;48.816;44.624;2022-09-09T06:30:22;101415;;;15.6;47.3
49583;BME280;36329;48.816;44.624;2022-09-09T06:33:23;101412;;;15.7;47.5
49583;BME280;36329;48.816;44.624;2022-09-09T06:36:26;101418;;;16.6;45.9
49583;BME280;36329;48.816;44.624;2022-09-09T06:39:28;101414;;;17.2;44.9
49583;BME280;36329;48.816;44.624;2022-09-09T06:42:30;101414;;;18.2;42.5
49583;BME280;36329;48.816;44.624;2022-09-09T06:45:32;101408;;;19;40.9
49583;BME280;36329;48.816;44.624;2022-09-09T06:48:33;101411;;;19.4;40.4
49583;BME280;36329;48.816;44.624;2022-09-09T06:51:37;101413;;;19.2;40
49583;BME280;36329;48.816;44.624;2022-09-09T06:54:40;101411;;;19.8;38.5
49583;BME280;36329;48.816;44.624;2022-09-09T06:57:41;101413;;;20;38.4
49583;BME280;36329;48.816;44.624;2022-09-09T07:00:43;101414;;;20.5;37.4
49583;BME280;36329;48.816;44.624;2022-09-09T07:03:47;101420;;;20.8;36.6
49583;BME280;36329;48.816;44.624;2022-09-09T07:06:49;101420;;;20.7;35.8
49583;BME280;36329;48.816;44.624;2022-09-09T07:09:50;101415;;;20.8;36
49583;BME280;36329;48.816;44.624;2022-09-09T07:12:52;101410;;;21;36.1
49583;BME280;36329;48.816;44.624;2022-09-09T07:15:54;101406;;;21.8;34.7
49583;BME280;36329;48.816;44.624;2022-09-09T07:18:55;101402;;;21.8;34.3
49583;BME280;36329;48.816;44.624;2022-09-09T07:21:58;101398;;;21.9;34
49583;BME280;36329;48.816;44.624;2022-09-09T07:25:00;101398;;;22;34
49583;BME280;36329;48.816;44.624;2022-09-09T07:28:01;101400;;;22.2;33.2
49583;BME280;36329;48.816;44.624;2022-09-09T07:31:05;101394;;;22.7;32.8
49583;BME280;36329;48.816;44.624;2022-09-09T07:34:07;101404;;;22.4;33.7
49583;BME280;36329;48.816;44.624;2022-09-09T07:37:08;101406;;;21.1;32.8
49583;BME280;36329;48.816;44.624;2022-09-09T07:40:10;101402;;;20.8;33.9
49583;BME280;36329;48.816;44.624;2022-09-09T07:43:12;101403;;;20.7;33.4
49583;BME280;36329;48.816;44.624;2022-09-09T07:46:15;101392;;;22;32.6
49583;BME280;36329;48.816;44.624;2022-09-09T07:49:17;101392;;;22.4;31.6
49583;BME280;36329;48.816;44.624;2022-09-09T07:52:19;101394;;;21.7;31.6
49583;BME280;36329;48.816;44.624;2022-09-09T07:55:21;101389;;;22.5;30.4
49583;BME280;36329;48.816;44.624;2022-09-09T07:58:23;101388;;;22.2;29.7
49583;BME280;36329;48.816;44.624;2022-09-09T08:01:27;101388;;;22.2;30.5
49583;BME280;36329;48.816;44.624;2022-09-09T08:04:29;101390;;;22.8;28.6
49583;BME280;36329;48.816;44.624;2022-09-09T08:07:31;101383;;;23;27.7
49583;BME280;36329;48.816;44.624;2022-09-09T08:10:33;101385;;;23.6;28.1
49583;BME280;36329;48.816;44.624;2022-09-09T08:13:35;101384;;;23.9;26.6
49583;BME280;36329;48.816;44.624;2022-09-09T08:16:39;101386;;;24.1;26.1
49583;BME280;36329;48.816;44.624;2022-09-09T08:19:41;101384;;;22.3;29.2
49583;BME280;36329;48.816;44.624;2022-09-09T08:22:42;101378;;;21.7;30
49583;BME280;36329;48.816;44.624;2022-09-09T08:25:44;101386;;;23.4;28.6
49583;BME280;36329;48.816;44.624;2022-09-09T08:28:45;101387;;;23.1;27.7
49583;BME280;36329;48.816;44.624;2022-09-09T08:31:49;101383;;;23.5;27.3
49583;BME280;36329;48.816;44.624;2022-09-09T08:34:51;101379;;;23.9;26.9
49583;BME280;36329;48.816;44.624;2022-09-09T08:37:53;101383;;;24.6;26
49583;BME280;36329;48.816;44.624;2022-09-09T08:41:00;101373;;;24.1;26.6
49583;BME280;36329;48.816;44.624;2022-09-09T08:44:07;101374;;;24.6;25.9
49583;BME280;36329;48.816;44.624;2022-09-09T08:47:15;101377;;;24.8;24.6
49583;BME280;36329;48.816;44.624;2022-09-09T08:50:23;101379;;;24.8;23.6
49583;BME280;36329;48.816;44.624;2022-09-09T08:53:28;101382;;;24.4;25.3
49583;BME280;36329;48.816;44.624;2022-09-09T08:56:35;101387;;;24.4;25.8
49583;BME280;36329;48.816;44.624;2022-09-09T08:59:37;101382;;;24.9;25.6
49583;BME280;36329;48.816;44.624;2022-09-09T09:02:47;101374;;;25.2;23.9
49583;BME280;36329;48.816;44.624;2022-09-09T09:05:59;101379;;;25.6;24.6
49583;BME280;36329;48.816;44.624;2022-09-09T09:09:07;101383;;;25.6;23.6
49583;BME280;36329;48.816;44.624;2022-09-09T09:12:15;101381;;;25.2;25.6
49583;BME280;36329;48.816;44.624;2022-09-09T09:15:21;101386;;;25.2;23.6
49583;BME280;36329;48.816;44.624;2022-09-09T09:18:24;101379;;;25.4;23.2
49583;BME280;36329;48.816;44.624;2022-09-09T09:21:31;101378;;;25.1;24.3
49583;BME280;36329;48.816;44.624;2022-09-09T09:24:43;101375;;;24.7;24.2
49583;BME280;36329;48.816;44.624;2022-09-09T09:27:52;101378;;;24.9;24
49583;BME280;36329;48.816;44.624;2022-09-09T09:31:03;101375;;;25.1;23.8
49583;BME280;36329;48.816;44.624;2022-09-09T09:34:08;101371;;;24.9;23.4
49583;BME280;36329;48.816;44.624;2022-09-09T09:37:15;101374;;;25.4;24.1
49583;BME280;36329;48.816;44.624;2022-09-09T09:40:20;101355;;;25.2;24
49583;BME280;36329;48.816;44.624;2022-09-09T09:43:24;101374;;;24.4;25.6
49583;BME280;36329;48.816;44.624;2022-09-09T09:46:28;101377;;;24.5;23.9
49583;BME280;36329;48.816;44.624;2022-09-09T09:49:30;101389;;;25.2;22.9
49583;BME280;36329;48.816;44.624;2022-09-09T09:52:32;101368;;;24.2;24.1
49583;BME280;36329;48.816;44.624;2022-09-09T09:55:35;101376;;;24.5;24.4
49583;BME280;36329;48.816;44.624;2022-09-09T09:58:49;101383;;;24.6;24.4
49583;BME280;36329;48.816;44.624;2022-09-09T10:01:52;101379;;;23.4;25.1
49583;BME280;36329;48.816;44.624;2022-09-09T10:05:00;101374;;;22.8;25.6
49583;BME280;36329;48.816;44.624;2022-09-09T10:08:05;101375;;;22.7;27.2
49583;BME280;36329;48.816;44.624;2022-09-09T10:11:20;101371;;;23.5;25
49583;BME280;36329;48.816;44.624;2022-09-09T10:14:30;101373;;;23;25.8
49583;BME280;36329;48.816;44.624;2022-09-09T10:17:40;101375;;;22.6;27.2
49583;BME280;36329;48.816;44.624;2022-09-09T10:20:57;101378;;;22.1;27.2
49583;BME280;36329;48.816;44.624;2022-09-09T10:24:11;101380;;;21.8;27.7
49583;BME280;36329;48.816;44.624;2022-09-09T10:27:22;101388;;;21.7;28.6
49583;BME280;36329;48.816;44.624;2022-09-09T10:30:30;101389;;;21.3;29.2
49583;BME280;36329;48.816;44.624;2022-09-09T10:33:42;101405;;;21.2;28.5
49583;BME280;36329;48.816;44.624;2022-09-09T10:36:48;101400;;;21.6;28.6
49583;BME280;36329;48.816;44.624;2022-09-09T10:39:54;101399;;;21.7;28.7
49583;BME280;36329;48.816;44.624;2022-09-09T10:43:09;101401;;;21.8;27.1
49583;BME280;36329;48.816;44.624;2022-09-09T10:46:17;101393;;;21.8;28.1
49583;BME280;36329;48.816;44.624;2022-09-09T10:49:31;101393;;;22.2;26.9
49583;BME280;36329;48.816;44.624;2022-09-09T10:52:44;101387;;;22.1;26.5
49583;BME280;36329;48.816;44.624;2022-09-09T10:55:53;101376;;;22.2;26.6
49583;BME280;36329;48.816;44.624;2022-09-09T10:59:00;101379;;;22.3;26
49583;BME280;36329;48.816;44.624;2022-09-09T11:02:20;101379;;;22;26.5
49583;BME280;36329;48.816;44.624;2022-09-09T11:05:28;101380;;;21.4;26.7
49583;BME280;36329;48.816;44.624;2022-09-09T11:08:33;101383;;;21.6;27.3
49583;BME280;36329;48.816;44.624;2022-09-09T11:11:41;101387;;;22.1;26.7
49583;BME280;36329;48.816;44.624;2022-09-09T11:14:45;101374;;;22;26.4
49583;BME280;36329;48.816;44.624;2022-09-09T11:17:51;101385;;;21.7;25.3
49583;BME280;36329;48.816;44.624;2022-09-09T11:20:59;101374;;;21.5;26.4
49583;BME280;36329;48.816;44.624;2022-09-09T11:24:05;101382;;;21.5;26.3
49583;BME280;36329;48.816;44.624;2022-09-09T11:27:11;101377;;;21.6;25.7
49583;BME280;36329;48.816;44.624;2022-09-09T11:30:18;101367;;;21.3;26.6
49583;BME280;36329;48.816;44.624;2022-09-09T11:33:35;101374;;;21.8;26.2
49583;BME280;36329;48.816;44.624;2022-09-09T11:36:49;101376;;;21.5;25.9
49583;BME280;36329;48.816;44.624;2022-09-09T11:40:08;101381;;;21.1;26.2
49583;BME280;36329;48.816;44.624;2022-09-09T11:43:12;101374;;;21.1;25.8
49583;BME280;36329;48.816;44.624;2022-09-09T11:46:17;101365;;;21.3;25.9
49583;BME280;36329;48.816;44.624;2022-09-09T11:49:27;101370;;;21.2;25.7
49583;BME280;36329;48.816;44.624;2022-09-09T11:52:37;101360;;;21.3;26
49583;BME280;36329;48.816;44.624;2022-09-09T11:55:39;101362;;;21.5;24.6
49583;BME280;36329;48.816;44.624;2022-09-09T11:58:43;101357;;;21.7;25.3
49583;BME280;36329;48.816;44.624;2022-09-09T12:01:45;101358;;;21.5;24.8
49583;BME280;36329;48.816;44.624;2022-09-09T12:04:57;101358;;;21.4;24.3
49583;BME280;36329;48.816;44.624;2022-09-09T12:08:02;101364;;;21.1;24.5
49583;BME280;36329;48.816;44.624;2022-09-09T12:11:03;101366;;;20.5;25.5
49583;BME280;36329;48.816;44.624;2022-09-09T12:14:23;101360;;;20.3;26.4
49583;BME280;36329;48.816;44.624;2022-09-09T12:17:40;101364;;;20.7;27.4
49583;BME280;36329;48.816;44.624;2022-09-09T12:20:52;101361;;;20.8;25.9
49583;BME280;36329;48.816;44.624;2022-09-09T12:24:00;101354;;;20.8;25.2
49583;BME280;36329;48.816;44.624;2022-09-09T12:27:08;101348;;;20.4;25.3
49583;BME280;36329;48.816;44.624;2022-09-09T12:30:15;101353;;;20.5;26.4
49583;BME280;36329;48.816;44.624;2022-09-09T12:33:18;101355;;;20.8;26.9
49583;BME280;36329;48.816;44.624;2022-09-09T12:36:22;101363;;;20.7;26.2
49583;BME280;36329;48.816;44.624;2022-09-09T12:39:31;101357;;;20.6;26.5
49583;BME280;36329;48.816;44.624;2022-09-09T12:42:39;101360;;;20.3;26.8
49583;BME280;36329;48.816;44.624;2022-09-09T12:45:42;101355;;;20;27
49583;BME280;36329;48.816;44.624;2022-09-09T12:48:44;101364;;;19.8;27.4
49583;BME280;36329;48.816;44.624;2022-09-09T12:51:46;101366;;;19.9;28.5
49583;BME280;36329;48.816;44.624;2022-09-09T12:54:47;101375;;;19.9;29.4
49583;BME280;36329;48.816;44.624;2022-09-09T12:57:49;101373;;;19.9;28.8
49583;BME280;36329;48.816;44.624;2022-09-09T13:00:57;101375;;;20.1;29
49583;BME280;36329;48.816;44.624;2022-09-09T13:04:00;101380;;;20;29
49583;BME280;36329;48.816;44.624;2022-09-09T13:07:06;101378;;;19.9;28.7
49583;BME280;36329;48.816;44.624;2022-09-09T13:10:11;101384;;;19.8;30.1
49583;BME280;36329;48.816;44.624;2022-09-09T13:13:13;101388;;;19.8;30.8
49583;BME280;36329;48.816;44.624;2022-09-09T13:16:20;101393;;;19.7;31.2
49583;BME280;36329;48.816;44.624;2022-09-09T13:19:22;101389;;;19.8;31.2
49583;BME280;36329;48.816;44.624;2022-09-09T13:22:30;101391;;;20;30.8
49583;BME280;36329;48.816;44.624;2022-09-09T13:25:32;101394;;;19.6;30.8
49583;BME280;36329;48.816;44.624;2022-09-09T13:28:34;101388;;;19.7;30.2
49583;BME280;36329;48.816;44.624;2022-09-09T13:31:36;101401;;;19.3;30.8
49583;BME280;36329;48.816;44.624;2022-09-09T13:34:38;101408;;;18.9;32.1
49583;BME280;36329;48.816;44.624;2022-09-09T13:37:40;101404;;;18.7;32.9
49583;BME280;36329;48.816;44.624;2022-09-09T13:40:52;101410;;;18.7;33.3
49583;BME280;36329;48.816;44.624;2022-09-09T13:43:54;101417;;;18.9;33.3
49583;BME280;36329;48.816;44.624;2022-09-09T13:47:00;101418;;;18.5;34
49583;BME280;36329;48.816;44.624;2022-09-09T13:50:18;101414;;;18.6;34.3
49583;BME280;36329;48.816;44.624;2022-09-09T13:53:20;101419;;;18.5;34.6
49583;BME280;36329;48.816;44.624;2022-09-09T13:56:22;101427;;;18.4;34.9
49583;BME280;36329;48.816;44.624;2022-09-09T13:59:23;101429;;;18.4;34.8
49583;BME280;36329;48.816;44.624;2022-09-09T14:02:25;101423;;;18.1;34.7
49583;BME280;36329;48.816;44.624;2022-09-09T14:05:26;101430;;;18.2;34.9
49583;BME280;36329;48.816;44.624;2022-09-09T14:08:29;101422;;;18.3;34.4
49583;BME280;36329;48.816;44.624;2022-09-09T14:11:30;101432;;;18.4;34.3
49583;BME280;36329;48.816;44.624;2022-09-09T14:14:32;101433;;;18.3;33.9
49583;BME280;36329;48.816;44.624;2022-09-09T14:17:34;101434;;;18.2;33.7
49583;BME280;36329;48.816;44.624;2022-09-09T14:20:35;101438;;;18.1;33.8
49583;BME280;36329;48.816;44.624;2022-09-09T14:23:37;101446;;;17.9;35.1
49583;BME280;36329;48.816;44.624;2022-09-09T14:26:38;101443;;;17.9;34.3
49583;BME280;36329;48.816;44.624;2022-09-09T14:29:40;101454;;;17.7;34.8
49583;BME280;36329;48.816;44.624;2022-09-09T14:32:42;101451;;;17.7;34.8
49583;BME280;36329;48.816;44.624;2022-09-09T14:35:43;101445;;;17.8;34.7
49583;BME280;36329;48.816;44.624;2022-09-09T14:38:45;101458;;;17.6;34.8
49583;BME280;36329;48.816;44.624;2022-09-09T14:41:47;101457;;;17.7;34.6
49583;BME280;36329;48.816;44.624;2022-09-09T14:44:48;101462;;;17.7;34.6
49583;BME280;36329;48.816;44.624;2022-09-09T14:47:50;101466;;;17.6;34.9
49583;BME280;36329;48.816;44.624;2022-09-09T14:50:52;101474;;;17.6;34.8
49583;BME280;36329;48.816;44.624;2022-09-09T14:53:56;101483;;;17.6;34.4
49583;BME280;36329;48.816;44.624;2022-09-09T14:56:58;101485;;;17.5;34.5
49583;BME280;36329;48.816;44.624;2022-09-09T15:00:00;101486;;;17.5;34.4
49583;BME280;36329;48.816;44.624;2022-09-09T15:03:02;101488;;;17.5;34.4
49583;BME280;36329;48.816;44.624;2022-09-09T15:06:05;101491;;;17.5;34.2
49583;BME280;36329;48.816;44.624;2022-09-09T15:09:07;101497;;;17.2;34.6
49583;BME280;36329;48.816;44.624;2022-09-09T15:12:08;101495;;;17.1;34.7
49583;BME280;36329;48.816;44.624;2022-09-09T15:15:10;101494;;;17;35
49583;BME280;36329;48.816;44.624;2022-09-09T15:18:13;101495;;;17;35.4
49583;BME280;36329;48.816;44.624;2022-09-09T15:21:17;101497;;;17;35.3
49583;BME280;36329;48.816;44.624;2022-09-09T15:24:20;101501;;;16.9;35.7
49583;BME280;36329;48.816;44.624;2022-09-09T15:27:21;101503;;;16.7;36.2
49583;BME280;36329;48.816;44.624;2022-09-09T15:30:23;101503;;;16.8;36.4
49583;BME280;36329;48.816;44.624;2022-09-09T15:33:25;101509;;;16.8;36.7
49583;BME280;36329;48.816;44.624;2022-09-09T15:36:27;101518;;;16.8;36.9
49583;BME280;36329;48.816;44.624;2022-09-09T15:39:29;101513;;;16.7;37
49583;BME280;36329;48.816;44.624;2022-09-09T15:42:31;101519;;;16.7;37.4
49583;BME280;36329;48.816;44.624;2022-09-09T15:45:33;101525;;;16.7;37.4
49583;BME280;36329;48.816;44.624;2022-09-09T15:48:35;101534;;;16.7;37.6
49583;BME280;36329;48.816;44.624;2022-09-09T15:51:38;101538;;;16.6;37.8
49583;BME280;36329;48.816;44.624;2022-09-09T15:54:40;101539;;;16.5;38.1
49583;BME280;36329;48.816;44.624;2022-09-09T15:57:42;101547;;;16.5;38.1
49583;BME280;36329;48.816;44.624;2022-09-09T16:00:43;101549;;;16.3;38.2
49583;BME280;36329;48.816;44.624;2022-09-09T16:03:45;101551;;;16.4;38.2
49583;BME280;36329;48.816;44.624;2022-09-09T16:06:47;101558;;;16.2;38.4
49583;BME280;36329;48.816;44.624;2022-09-09T16:09:49;101564;;;16.3;38.5
49583;BME280;36329;48.816;44.624;2022-09-09T16:12:50;101566;;;16.2;38.2
49583;BME280;36329;48.816;44.624;2022-09-09T16:15:53;101568;;;16.1;38.4
49583;BME280;36329;48.816;44.624;2022-09-09T16:18:57;101575;;;16;39.1
49583;BME280;36329;48.816;44.624;2022-09-09T16:21:59;101583;;;15.9;38.9
49583;BME280;36329;48.816;44.624;2022-09-09T16:25:00;101582;;;15.8;39
49583;BME280;36329;48.816;44.624;2022-09-09T16:28:02;101590;;;15.9;39.1
49583;BME280;36329;48.816;44.624;2022-09-09T16:31:04;101590;;;15.8;39.2
49583;BME280;36329;48.816;44.624;2022-09-09T16:34:06;101600;;;15.7;39.3
49583;BME280;36329;48.816;44.624;2022-09-09T16:37:08;101605;;;15.5;39.6
49583;BME280;36329;48.816;44.624;2022-09-09T16:40:09;101611;;;15.4;40
49583;BME280;36329;48.816;44.624;2022-09-09T16:43:12;101623;;;15.3;40.3
49583;BME280;36329;48.816;44.624;2022-09-09T16:46:15;101625;;;15.3;40.2
49583;BME280;36329;48.816;44.624;2022-09-09T16:49:17;101629;;;15.1;40.7
49583;BME280;36329;48.816;44.624;2022-09-09T16:52:18;101627;;;15.1;40.9
49583;BME280;36329;48.816;44.624;2022-09-09T16:55:20;101636;;;15.1;40.8
49583;BME280;36329;48.816;44.624;2022-09-09T16:58:22;101643;;;15;41
49583;BME280;36329;48.816;44.624;2022-09-09T17:01:24;101644;;;14.9;41.6
49583;BME280;36329;48.816;44.624;2022-09-09T17:04:27;101648;;;14.8;41.6
49583;BME280;36329;48.816;44.624;2022-09-09T17:07:29;101648;;;14.6;42.1